Terminal Aerodrome Forecast
Issued by NWS

Current Version | Previous Version | Text Only | Print | Product List | Glossary On
Versions: 1 2 3 4 5 6 7 8 9 10 11 12 13 14 15 16 17 18 19 20
000
FTAK31 PAJN 021306 AAA
TAFAKT
TAF AMD
PAKT 021306Z 0213/0312 VRB03KT P6SM BCFG FEW002
      TEMPO 0213/0215 1SM BR SCT002
     FM021500 32005KT P6SM SCT020 SCT100
     FM021800 34010KT P6SM FEW022 SCT100
     FM030500 32005KT P6SM SCT100
      AMD LTD TO CLD VIS AND WIND 0206/0215=

USA.gov is the U.S. government's official web portal to all federal, state and local government web resources and services.